Des Moines, IA (50318)

8:47 PM CST on January 16, 2017 (GMT -0600)
Witmer Park | | Change Station
Active Advisory: Winter Weather Advisory

Elev 892 ft 41.61 °N, 93.66 °W | Updated 20 seconds ago

Overcast
Overcast
34.2 °F
Feels Like 34 °F
N
0.0
Wind Variable Wind from NE
Gusts 0.0 mph

Today
High -- | Low -- °F
--% Chance of Precip.
Yesterday
High -- | Low -- °F
Precip. -- in
Pressure 29.91 in
Visibility 0.2 miles
Clouds
Windchill 34 °F
Dew Point 28 °F
Humidity 78%
Rainfall 0.01 in
Snow Depth Not available.
7:38 AM 5:10 PM
Waning Gibbous, 76% visible
METAR KDSM 170154Z 03003KT 1/4SM R31/2200V2600FT -DZ FG VV002 01/01 A2989 RMK AO2 SFC VIS 1/2 DZB22 SLP129 P0000 T00110006
Pressure 29.91 in
Visibility 0.2 miles
Clouds
Windchill 34 °F
Dew Point 28 °F
Humidity 78%
Rainfall 0.01 in
Snow Depth Not available.
7:38 AM 5:10 PM
Waning Gibbous, 76% visible
METAR KDSM 170154Z 03003KT 1/4SM R31/2200V2600FT -DZ FG VV002 01/01 A2989 RMK AO2 SFC VIS 1/2 DZB22 SLP129 P0000 T00110006

Get Your Daily Forecast Email!

Thanks for signing up!

Be on the lookout for a verification email in your inbox.

You'll start receiving the daily forecast at 8 AM.

×

10-Day Weather Forecast

Almanac

Astronomy

Jan. 16, 2017 Rise Set
Actual Time
Civil Twilight
Nautical Twilight
Astronomical Twilight
Moon
Length of Visible Light
Length of Day
Tomorrow will be .
, % of the Moon is Illuminated

Today's Extremes

State Highs State Lows

Community

WunderPhotos

Upload Photos

1,962,540 photos uploaded!

WunderBlog® & News

Nearby

Air Quality

  Air Quality AQ Index Pollutant
Not available.

Snow Depth

Station Depth Elevation

Earthquake Activity

City Distance Mag. Time & Date
Minimum magnitude displayed is 2.5.

Coastal Water Temperatures

Place Temperature

Stations

Nearby Weather Stations

Station Location Temp. Windchill Dew Point Humidity Wind Precip. Elev Updated Type
                   

Watches & Warnings

Winter Weather Advisory
Issued: 3:49 PM CST Jan. 16, 2017 – National Weather Service

... Winter Weather Advisory in effect until midnight CST tonight...
... Ice Storm Warning is cancelled...

The National Weather Service in Des Moines has issued a Winter
Weather Advisory for light freezing rain or freezing drizzle,
which is in effect until midnight CST tonight. The Ice Storm
Warning has been cancelled.

* Short term trends... any significant additional ice accumulations
with this storm have ended... but residual icing and minor
additional ice accumulations due to intermittent light freezing
rain or freezing drizzle will persist through the evening as
temperatures hover around the freezing mark.

* Impacts... untreated roads... sidewalks and parking lots will
remain slick and ice covered with hazardous travel.

Precautionary/preparedness actions...

A Winter Weather Advisory means that periods of freezing rain
will cause travel difficulties. Be prepared for slippery roads and
limited visibilities, and use caution while driving.